< < Back
Terminal Aerodrome Forecast


Current Version              Previous Versions:   1  2  3  4  5  6  7  8  9  

Terminal Aerodrome Forecast

044
FTUS42 KILM 060531
TAFILM
TAF
KILM 060531Z 0606/0706 02003KT P6SM SKC
     FM061300 03008KT P6SM SCT120 BKN250
     FM062200 02008KT P6SM SCT040 BKN080
     FM070400 01011G16KT 6SM -RA SCT025 OVC045=

Latest METAR

717
SAUS70 KWBC 060700 RRG
MTRILM
METAR KILM 060653Z AUTO 00000KT 9SM CLR 01/M01 A3040 RMK AO2 SLP293
I1000 T00061011


USA.gov is the U.S. government's official web portal to all federal, state and local government web resources and services.